Terminal Aerodrome Forecast
Issued by NWS

Home | Current Version | Previous Version | Text Only | Print | Product List | Glossary On
Versions: 1 2 3 4 5 6 7 8 9 10 11 12 13 14 15 16 17 18 19 20 21 22 23 24 25 26 27 28 29
000
FTUS43 KDLH 150307 AAB
TAFHIB
TAF AMD
KHIB 150307Z 1503/1524 30008KT P6SM SCT025 OVC045
      TEMPO 1503/1506 2SM -SHSN BKN025
     FM150600 31007KT P6SM BKN024
     FM151000 32006KT P6SM BKN014
     FM151700 31005KT P6SM BKN025=

USA.gov is the U.S. government's official web portal to all federal, state and local government web resources and services.